オークランド の空港の天気 - METARとTAF

オークランド国際空港 ( NZAA / AKL ) - ニュージーランド オークランド|オークランド
飛行場実況気象(Metar)
観測時間12/18 21:30 NZDT (12/18 08:30 UTC)
風向・風速南西 5m/s
視程10km以上
天気現象
少しの雲 雲底高度 1250m
気温20℃
湿度83%
気圧1010hPa
METARNZAA 180830Z AUTO 22010KT 9999 FEW041/// 20/17 Q1010 NOSIG
過去の天気等 Google飛行場航空写真 Wunderground天気予報

過去48時間のMETAR

飛行場予報(TAF)
発表時間: 12/18 18:16 NZDT (12/18 05:16 UTC)
予報対象時間: 18日19時 NZDT ~ 19日19時 NZDT
風向・風速西南西 5m/s
視程10km以上
天気現象弱いしゅう雨
全天の4割程度の雲 雲底高度 460m
全天の8割程度の雲 雲底高度 1,220m
18日22時 NZDT ~ 19日1時 NZDT に一時的に
視程5,000m
天気現象しゅう雨
少しの塔状積雲 雲底高度 610m
19日1時 NZDT から
風向・風速不定 1m/s
視程10km以上
少しの雲 雲底高度 610m
全天の4割程度の雲 雲底高度 910m
19日11時 NZDT ~ 19日13時 NZDT に徐々に
風向・風速西 6m/s
TAF NZAA 180516Z 1806/1906 24010KT 9999 -SHRA SCT015 BKN040
TEMPO 1809/1812 5000 SHRA FEW020TCU
FM181200 VRB02KT 9999 FEW020 SCT030
BECMG 1822/1900 26012KT